Time;durP1;ratioP1;P1;durP2;ratioP2;P2;SDS_P1;SDS_P2;PMS_P1;PMS_P2;Temp;Humidity;BMP_temperature;BMP_pressure;BME280_temperature;BME280_humidity;BME280_pressure;Samples;Min_cycle;Max_cycle;Signal;HPM_P1;HPM_P2
2021/09/29 00:00:47;;;;;;;175.30;51.27;;;;;;;13.43;77.22;102094.41;5028368;28;20429;-69
2021/09/29 00:03:15;;;;;;;175.47;54.93;;;;;;;13.42;76.77;102098.94;5028412;28;20451;-70
2021/09/29 00:05:43;;;;;;;164.50;49.03;;;;;;;13.43;77.16;102097.09;5026450;28;20459;-70
2021/09/29 00:08:12;;;;;;;165.03;44.40;;;;;;;13.20;77.29;102075.03;5027247;28;20814;-69
2021/09/29 00:10:42;;;;;;;175.67;52.33;;;;;;;13.35;77.10;102094.84;5043461;28;20517;-69
2021/09/29 00:13:12;;;;;;;174.07;50.63;;;;;;;13.37;77.24;102098.34;5028453;28;20531;-69
2021/09/29 00:15:40;;;;;;;175.47;54.13;;;;;;;13.37;76.97;102095.63;5028097;28;20816;-69
2021/09/29 00:18:08;;;;;;;167.70;52.90;;;;;;;13.35;77.28;102089.47;5026268;28;20866;-69
2021/09/29 00:20:36;;;;;;;168.63;51.03;;;;;;;13.43;76.83;102083.63;5022380;28;20491;-69
2021/09/29 00:23:04;;;;;;;165.77;45.70;;;;;;;13.48;77.14;102084.25;5028210;28;20521;-69
2021/09/29 00:25:32;;;;;;;168.77;51.93;;;;;;;13.46;76.83;102078.91;5043251;28;20441;-69
2021/09/29 00:28:00;;;;;;;165.13;49.03;;;;;;;13.43;77.20;102075.53;5028145;28;20423;-69
2021/09/29 00:30:36;;;;;;;163.10;48.50;;;;;;;13.19;77.18;102049.03;5027022;28;20463;-68
2021/09/29 00:33:04;;;;;;;167.40;50.80;;;;;;;13.42;77.83;102084.56;5027807;28;20915;-69
2021/09/29 00:35:32;;;;;;;173.70;54.43;;;;;;;13.47;77.20;102087.88;5026907;28;20373;-69
2021/09/29 00:38:00;;;;;;;162.00;45.73;;;;;;;13.31;77.25;102056.41;5027834;28;20505;-69
2021/09/29 00:40:28;;;;;;;170.30;51.83;;;;;;;13.48;77.04;102076.16;5027242;28;20488;-69
2021/09/29 00:42:56;;;;;;;168.87;49.10;;;;;;;13.47;77.67;102077.06;5027540;28;20448;-69
2021/09/29 00:45:24;;;;;;;164.77;44.50;;;;;;;13.39;77.63;102069.44;5027855;28;20456;-70
2021/09/29 00:47:54;;;;;;;137.63;40.83;;;;;;;13.43;77.73;102076.38;5027768;28;20470;-70
2021/09/29 00:50:22;;;;;;;139.40;40.63;;;;;;;13.42;77.48;102077.34;5027873;28;20478;-70
2021/09/29 00:52:50;;;;;;;140.70;41.73;;;;;;;13.52;77.60;102069.59;5027548;28;21000;-69
2021/09/29 00:55:20;;;;;;;141.27;42.90;;;;;;;13.48;77.72;102076.16;5027129;28;21049;-69
2021/09/29 00:57:48;;;;;;;137.50;37.63;;;;;;;13.45;77.71;102071.75;5043064;28;20429;-70
2021/09/29 01:00:17;;;;;;;133.87;36.17;;;;;;;13.46;77.74;102080.72;5026515;28;20456;-69
2021/09/29 01:02:45;;;;;;;125.83;34.07;;;;;;;13.48;77.34;102070.75;5041701;28;20569;-70
2021/09/29 01:05:15;;;;;;;124.43;37.97;;;;;;;13.48;77.89;102068.03;5045521;28;20474;-69
2021/09/29 01:07:49;;;;;;;132.93;38.80;;;;;;;13.44;77.47;102072.72;5027223;28;20510;-69
2021/09/29 01:10:28;;;;;;;173.23;50.90;;;;;;;13.56;77.59;102066.63;5037180;28;20480;-70
2021/09/29 01:13:06;;;;;;;168.73;43.07;;;;;;;13.47;77.38;102067.19;5024525;28;20440;-69
2021/09/29 01:15:42;;;;;;;180.50;54.10;;;;;;;13.52;77.18;102069.59;5017433;28;20455;-69
2021/09/29 01:18:12;;;;;;;180.40;57.73;;;;;;;13.44;78.18;102063.75;5028602;28;20505;-70
2021/09/29 01:20:44;;;;;;;177.60;50.83;;;;;;;13.47;77.47;102069.88;5028653;28;20529;-69
2021/09/29 01:23:27;;;;;;;177.97;50.57;;;;;;;13.47;78.08;102068.97;5027484;28;20981;-69
2021/09/29 01:26:14;;;;;;;180.47;50.57;;;;;;;13.47;77.64;102066.28;5027340;28;20455;-70
2021/09/29 01:28:47;;;;;;;179.53;52.73;;;;;;;13.46;77.99;102056.44;5026562;28;20994;-69
2021/09/29 01:31:16;;;;;;;181.57;53.40;;;;;;;13.42;77.85;102066.56;5027362;28;20974;-70
2021/09/29 01:33:46;;;;;;;174.47;44.00;;;;;;;13.41;78.21;102061.25;5025911;28;20459;-70
2021/09/29 01:36:17;;;;;;;177.97;49.33;;;;;;;13.38;78.11;102058.72;5026100;28;20460;-69
2021/09/29 01:38:49;;;;;;;178.17;50.63;;;;;;;12.96;77.68;101979.31;5027145;28;20447;-69
2021/09/29 01:41:18;;;;;;;182.03;54.67;;;;;;;13.41;78.18;102055.84;5025222;28;20517;-70
2021/09/29 01:43:46;;;;;;;177.43;48.20;;;;;;;13.45;78.45;102057.41;5027232;28;20452;-70
2021/09/29 01:46:15;;;;;;;177.93;49.93;;;;;;;13.47;77.88;102059.09;5027429;28;20470;-69
2021/09/29 01:48:49;;;;;;;177.90;50.50;;;;;;;13.45;78.20;102047.47;5026990;28;20479;-70
2021/09/29 01:51:19;;;;;;;177.07;49.80;;;;;;;13.52;78.24;102042.63;5038072;28;20561;-70
2021/09/29 01:53:49;;;;;;;175.17;44.77;;;;;;;13.55;78.16;102053.22;5029464;28;20938;-69
2021/09/29 01:56:18;;;;;;;180.70;54.47;;;;;;;13.52;78.22;102048.00;5031469;28;20455;-69
2021/09/29 01:58:46;;;;;;;179.23;55.20;;;;;;;13.45;77.79;102031.28;5031708;28;20601;-69
2021/09/29 02:01:15;;;;;;;173.73;44.47;;;;;;;13.54;78.32;102043.38;5031905;28;20930;-69
2021/09/29 02:03:45;;;;;;;172.13;41.50;;;;;;;13.58;77.61;102042.25;5031865;28;21159;-69
2021/09/29 02:06:14;;;;;;;171.20;42.90;;;;;;;13.53;77.20;102039.81;5031850;28;20455;-70
2021/09/29 02:08:42;;;;;;;176.83;47.33;;;;;;;13.56;77.91;102044.16;5031745;28;20941;-69
2021/09/29 02:11:10;;;;;;;173.33;45.37;;;;;;;13.52;77.76;102038.09;5030220;28;20451;-69
2021/09/29 02:13:40;;;;;;;175.63;47.87;;;;;;;13.47;77.82;102044.69;5047039;28;20475;-69
2021/09/29 02:16:08;;;;;;;182.53;54.27;;;;;;;13.51;78.27;102030.94;5031656;28;20450;-70
2021/09/29 02:18:36;;;;;;;185.23;59.57;;;;;;;13.50;78.00;102034.59;5031607;28;20459;-69
2021/09/29 02:21:04;;;;;;;176.83;50.63;;;;;;;13.56;77.73;102038.78;5031667;28;20467;-69
2021/09/29 02:23:32;;;;;;;180.30;57.63;;;;;;;13.48;77.63;102041.06;5031505;28;20455;-70
2021/09/29 02:26:00;;;;;;;174.70;50.23;;;;;;;13.47;78.13;102039.28;5031302;28;20562;-70
2021/09/29 02:28:28;;;;;;;176.73;50.97;;;;;;;13.51;78.13;102041.75;5031244;28;20525;-70
2021/09/29 02:30:58;;;;;;;178.20;51.47;;;;;;;13.49;78.08;102032.00;5030457;28;20476;-69
2021/09/29 02:33:26;;;;;;;176.13;47.10;;;;;;;13.42;77.75;102044.09;5034455;28;20460;-69
2021/09/29 02:35:54;;;;;;;181.13;49.90;;;;;;;13.40;77.77;102037.91;5029922;28;20467;-69
2021/09/29 02:38:22;;;;;;;179.83;49.17;;;;;;;13.42;78.14;102031.47;5031084;28;20969;-69
2021/09/29 02:40:50;;;;;;;181.20;49.70;;;;;;;13.19;78.21;101992.38;5045059;28;20474;-69
2021/09/29 02:43:18;;;;;;;181.33;49.90;;;;;;;13.48;78.36;102031.13;5043881;28;20494;-69
2021/09/29 02:45:46;;;;;;;180.17;47.50;;;;;;;13.35;78.25;102030.97;5031026;28;20459;-69
2021/09/29 02:48:16;;;;;;;179.73;46.20;;;;;;;13.44;78.42;102028.69;5028272;28;20460;-69
2021/09/29 02:50:44;;;;;;;177.73;44.63;;;;;;;13.38;78.24;102023.66;5036215;28;20730;-69
2021/09/29 02:53:12;;;;;;;175.23;43.43;;;;;;;13.34;78.10;102007.66;5037100;28;20482;-69
2021/09/29 02:55:40;;;;;;;172.80;41.60;;;;;;;13.24;78.71;101989.41;5029925;28;20497;-69
2021/09/29 02:58:09;;;;;;;175.40;44.73;;;;;;;13.43;78.51;102022.41;5030147;28;20243;-69
2021/09/29 03:00:37;;;;;;;172.43;41.17;;;;;;;13.45;78.65;102025.03;5029880;28;20985;-69
2021/09/29 03:03:05;;;;;;;173.00;42.20;;;;;;;13.39;78.76;102020.00;5029707;28;20459;-69
2021/09/29 03:05:35;;;;;;;176.63;46.13;;;;;;;13.42;78.77;102012.56;5025945;28;20551;-69
2021/09/29 03:08:03;;;;;;;173.57;41.83;;;;;;;13.43;78.87;102010.75;5025836;28;20460;-70
2021/09/29 03:10:31;;;;;;;173.27;42.00;;;;;;;13.44;79.24;102009.78;5023122;28;20487;-68
2021/09/29 03:12:59;;;;;;;174.50;43.80;;;;;;;13.38;79.50;102007.47;5029178;28;20985;-69
2021/09/29 03:15:27;;;;;;;174.23;43.30;;;;;;;13.36;79.53;102013.81;5022903;28;20467;-68
2021/09/29 03:17:55;;;;;;;175.37;45.57;;;;;;;13.29;79.85;102007.06;5028787;28;20459;-69
2021/09/29 03:20:24;;;;;;;173.47;45.47;;;;;;;13.36;79.56;102010.25;5016696;28;20884;-70
2021/09/29 03:22:54;;;;;;;173.43;42.00;;;;;;;13.39;79.33;102003.81;5027913;28;20462;-69
2021/09/29 03:25:23;;;;;;;172.87;41.03;;;;;;;13.39;79.43;102010.06;5026310;28;20464;-70
2021/09/29 03:27:52;;;;;;;173.20;41.40;;;;;;;13.36;79.33;102008.41;5027368;28;20567;-69
2021/09/29 03:30:21;;;;;;;173.50;42.63;;;;;;;13.44;78.99;102004.38;5028121;28;20495;-68
2021/09/29 03:32:49;;;;;;;174.27;42.40;;;;;;;13.18;79.63;101985.25;5026580;28;20467;-68
2021/09/29 03:35:17;;;;;;;174.27;43.27;;;;;;;13.36;79.50;102012.94;5026716;28;20458;-68
2021/09/29 03:37:45;;;;;;;173.07;41.40;;;;;;;13.39;79.48;102009.19;5028515;28;20989;-69
2021/09/29 03:40:16;;;;;;;173.90;42.17;;;;;;;13.47;79.06;102009.59;5028452;28;20455;-69
2021/09/29 03:42:45;;;;;;;173.40;42.03;;;;;;;13.40;79.28;102002.84;5028349;28;20440;-69
2021/09/29 03:45:14;;;;;;;173.30;42.57;;;;;;;13.45;79.41;102008.81;5027736;28;20455;-69
2021/09/29 03:47:43;;;;;;;177.33;46.67;;;;;;;13.43;79.28;102005.34;5028225;28;21017;-69
2021/09/29 03:50:13;;;;;;;172.63;42.23;;;;;;;13.47;79.21;102004.22;5029915;28;20883;-69
2021/09/29 03:52:41;;;;;;;172.70;41.83;;;;;;;13.48;79.11;102008.69;5039734;28;21019;-67
2021/09/29 03:55:10;;;;;;;176.37;48.93;;;;;;;13.49;79.45;102007.72;5027949;28;20456;-68
2021/09/29 03:57:39;;;;;;;171.53;42.37;;;;;;;13.48;79.63;102003.28;5027867;28;20451;-68
2021/09/29 04:00:10;;;;;;;172.73;41.70;;;;;;;13.49;79.14;102011.28;5028040;28;20452;-69
2021/09/29 04:02:40;;;;;;;171.33;43.23;;;;;;;13.47;79.11;101998.81;5015793;28;20449;-69
2021/09/29 04:05:10;;;;;;;169.07;43.13;;;;;;;13.50;79.77;101995.97;5026139;28;20471;-69
2021/09/29 04:07:39;;;;;;;174.07;45.30;;;;;;;13.46;79.72;101992.53;5027605;28;20451;-69
2021/09/29 04:10:08;;;;;;;173.70;43.93;;;;;;;13.46;79.74;101999.78;5027718;28;20951;-70
2021/09/29 04:12:39;;;;;;;174.70;45.30;;;;;;;13.38;79.28;101991.28;5027623;28;20452;-69
2021/09/29 04:15:10;;;;;;;172.00;43.63;;;;;;;13.51;79.42;102001.25;5026272;28;20550;-68
2021/09/29 04:17:38;;;;;;;172.07;44.03;;;;;;;13.55;79.23;101993.84;5026539;28;20559;-69
2021/09/29 04:20:08;;;;;;;179.13;56.67;;;;;;;13.52;79.80;102004.81;5034686;28;20438;-69
2021/09/29 04:22:37;;;;;;;177.03;50.37;;;;;;;13.47;79.99;102006.91;5018865;28;20521;-69
2021/09/29 04:25:06;;;;;;;171.30;42.37;;;;;;;13.43;80.10;102002.66;5015840;28;20479;-69
2021/09/29 04:27:34;;;;;;;175.13;49.13;;;;;;;13.48;79.83;101998.75;5023560;28;20451;-69
2021/09/29 04:30:03;;;;;;;154.23;40.33;;;;;;;13.46;79.50;101991.69;5021622;28;20460;-69
2021/09/29 04:32:34;;;;;;;163.07;41.00;;;;;;;13.49;80.10;101999.63;5031027;28;20478;-67
2021/09/29 04:35:02;;;;;;;163.27;41.77;;;;;;;13.55;79.88;101993.84;5043103;28;20848;-68
2021/09/29 04:37:30;;;;;;;166.70;46.37;;;;;;;13.54;80.06;101992.09;5043957;28;20451;-68
2021/09/29 04:39:58;;;;;;;171.50;52.53;;;;;;;13.56;79.47;101993.75;5019795;28;20462;-68
2021/09/29 04:42:27;;;;;;;175.37;57.27;;;;;;;13.57;79.87;101992.78;5040427;28;20460;-68
2021/09/29 04:44:55;;;;;;;167.17;43.13;;;;;;;13.62;79.49;101992.50;5028540;28;20502;-69
2021/09/29 04:47:23;;;;;;;166.83;44.03;;;;;;;13.64;79.69;101993.28;5023137;28;20456;-68
2021/09/29 04:49:52;;;;;;;164.73;41.27;;;;;;;13.44;80.25;101974.72;5032641;28;20459;-68
2021/09/29 04:52:20;;;;;;;170.90;42.77;;;;;;;13.55;79.53;101994.72;5018846;28;20494;-68
2021/09/29 04:54:48;;;;;;;172.13;43.50;;;;;;;13.38;80.09;101985.88;5025432;28;20467;-69
2021/09/29 04:57:17;;;;;;;172.83;44.23;;;;;;;13.49;80.22;101988.81;5021767;28;20461;-69
2021/09/29 04:59:45;;;;;;;173.10;43.37;;;;;;;13.58;79.89;101994.53;5027522;28;20506;-69
2021/09/29 05:02:15;;;;;;;171.27;44.20;;;;;;;13.58;79.97;102004.47;5023216;28;21453;-68
2021/09/29 05:04:43;;;;;;;173.80;46.13;;;;;;;13.58;79.75;102001.75;5026094;28;20464;-68
2021/09/29 05:07:20;;;;;;;178.57;46.80;;;;;;;13.58;80.23;101996.34;5022754;28;20470;-68
2021/09/29 05:09:50;;;;;;;177.33;46.23;;;;;;;13.45;80.08;101977.31;5026551;28;20486;-69
2021/09/29 05:12:25;;;;;;;176.93;44.73;;;;;;;13.60;79.67;101999.84;5024912;28;20503;-68
2021/09/29 05:14:54;;;;;;;176.57;43.57;;;;;;;13.58;80.23;101985.56;5023088;28;20478;-69
2021/09/29 05:17:22;;;;;;;176.43;44.20;;;;;;;13.57;79.59;101991.91;5026735;28;20447;-70
2021/09/29 05:19:50;;;;;;;176.50;43.33;;;;;;;13.58;79.73;101988.25;5028017;28;20447;-69
2021/09/29 05:22:19;;;;;;;173.43;43.13;;;;;;;13.62;80.26;101992.50;5042924;28;20453;-69
2021/09/29 05:24:47;;;;;;;173.57;44.73;;;;;;;13.48;79.94;101966.38;5043411;28;20447;-69
2021/09/29 05:27:16;;;;;;;172.17;42.63;;;;;;;13.57;79.31;101973.03;5027353;28;20497;-69
2021/09/29 05:29:48;;;;;;;175.90;44.83;;;;;;;13.59;79.72;101974.66;5028911;28;20605;-69
2021/09/29 05:32:16;;;;;;;175.93;43.53;;;;;;;13.61;79.28;101988.06;5030360;28;20506;-69
2021/09/29 05:34:45;;;;;;;164.33;39.43;;;;;;;13.52;79.72;101956.25;5030153;28;20491;-70
2021/09/29 05:37:13;;;;;;;173.50;43.00;;;;;;;13.65;79.96;101985.09;5031561;28;20429;-69
2021/09/29 05:39:42;;;;;;;174.57;43.47;;;;;;;13.60;79.81;101980.94;5031187;28;20809;-72
2021/09/29 05:42:11;;;;;;;169.53;41.70;;;;;;;13.58;79.86;101983.72;5027835;28;20494;-72
2021/09/29 05:44:39;;;;;;;168.20;42.13;;;;;;;13.58;80.23;101982.84;5053545;28;20981;-72
2021/09/29 05:47:09;;;;;;;162.30;40.23;;;;;;;13.42;80.23;101965.84;5038723;28;20799;-70
2021/09/29 05:49:37;;;;;;;160.37;40.43;;;;;;;13.38;80.63;101958.88;5031027;28;20479;-70
2021/09/29 05:52:07;;;;;;;159.23;39.83;;;;;;;13.58;80.14;101983.72;5031173;28;20486;-71
2021/09/29 05:54:36;;;;;;;156.33;38.70;;;;;;;13.60;80.59;101991.72;5031413;28;20447;-69
2021/09/29 05:57:06;;;;;;;156.87;42.20;;;;;;;13.66;80.37;101991.34;5031394;28;20452;-72
2021/09/29 05:59:34;;;;;;;157.37;41.60;;;;;;;13.66;80.34;101985.97;5030628;28;21213;-71
2021/09/29 06:02:02;;;;;;;159.70;41.57;;;;;;;13.67;79.91;101982.28;5029687;28;20470;-71
2021/09/29 06:04:31;;;;;;;161.70;42.30;;;;;;;13.70;80.08;101981.22;5045984;28;20514;-71
2021/09/29 06:06:59;;;;;;;169.67;54.13;;;;;;;13.68;80.58;101986.72;5030857;28;20451;-69
2021/09/29 06:09:27;;;;;;;166.57;52.63;;;;;;;13.68;79.94;101982.19;5029617;28;20470;-71
2021/09/29 06:11:55;;;;;;;170.90;56.70;;;;;;;13.71;80.65;101991.06;5022523;28;20487;-70
2021/09/29 06:14:24;;;;;;;166.47;51.07;;;;;;;13.66;80.83;101985.97;5024820;28;20462;-71
2021/09/29 06:16:59;;;;;;;169.83;54.23;;;;;;;13.69;80.29;101996.56;5030653;28;20433;-71
2021/09/29 06:19:27;;;;;;;192.17;68.27;;;;;;;13.54;80.49;101955.19;5029167;28;20447;-71
2021/09/29 06:21:55;;;;;;;191.33;67.30;;;;;;;13.72;80.87;101985.56;5023666;28;20476;-71
2021/09/29 06:24:23;;;;;;;184.90;62.97;;;;;;;13.74;80.84;101985.47;5040691;28;20463;-70
2021/09/29 06:26:53;;;;;;;173.33;51.93;;;;;;;13.68;81.11;101994.81;5030781;28;20454;-71
2021/09/29 06:29:21;;;;;;;186.53;62.60;;;;;;;13.55;81.31;101966.84;5030856;28;20761;-70
2021/09/29 06:31:52;;;;;;;187.13;62.37;;;;;;;13.65;81.06;101981.53;5028126;28;20993;-71
2021/09/29 06:34:20;;;;;;;189.63;64.67;;;;;;;13.66;81.19;101981.41;5030535;28;20866;-72
2021/09/29 06:36:48;;;;;;;190.40;65.17;;;;;;;13.55;81.57;101962.31;5030472;28;20456;-72
2021/09/29 06:39:16;;;;;;;187.87;61.67;;;;;;;13.65;81.30;101985.09;5030681;28;20303;-72
2021/09/29 06:41:45;;;;;;;190.27;66.63;;;;;;;13.79;81.28;101986.09;5028767;28;20440;-72
2021/09/29 06:44:14;;;;;;;147.97;49.47;;;;;;;13.73;81.70;101990.00;5029748;28;20958;-72
2021/09/29 06:46:43;;;;;;;137.23;45.37;;;;;;;13.72;81.72;101993.69;5027618;28;20541;-72
2021/09/29 06:49:12;;;;;;;133.90;44.13;;;;;;;13.60;82.18;101987.19;5025101;28;20480;-72
2021/09/29 06:51:40;;;;;;;136.93;45.50;;;;;;;13.54;83.54;101982.19;5040406;28;20855;-70
2021/09/29 06:54:09;;;;;;;135.83;45.27;;;;;;;13.20;84.16;101933.91;5030512;28;20451;-70
2021/09/29 06:56:37;;;;;;;129.93;42.90;;;;;;;13.43;84.28;101983.75;5029949;28;20447;-70
2021/09/29 06:59:05;;;;;;;131.83;42.30;;;;;;;13.37;85.13;101982.31;5030164;28;20822;-70
2021/09/29 07:01:33;;;;;;;136.17;44.63;;;;;;;13.41;85.69;101983.00;5045347;28;20244;-71
2021/09/29 07:04:01;;;;;;;138.47;44.43;;;;;;;13.44;86.16;101988.19;5030015;28;20535;-70
2021/09/29 07:06:31;;;;;;;140.10;47.87;;;;;;;13.33;85.83;101978.06;5029940;28;20451;-71
2021/09/29 07:08:59;;;;;;;137.90;47.60;;;;;;;13.35;86.06;101987.78;5029401;28;20459;-71
2021/09/29 07:11:27;;;;;;;135.10;45.10;;;;;;;13.33;86.57;101981.63;5045141;28;20501;-71
2021/09/29 07:13:55;;;;;;;136.90;46.07;;;;;;;13.32;86.84;101993.38;5030060;28;20479;-71
2021/09/29 07:16:25;;;;;;;136.83;45.80;;;;;;;13.25;86.45;101966.84;5029752;28;20443;-71
2021/09/29 07:18:57;;;;;;;134.43;42.87;;;;;;;13.29;87.26;101976.50;5028500;28;20486;-72
2021/09/29 07:21:26;;;;;;;131.63;44.13;;;;;;;13.30;87.24;101989.91;5029529;28;20594;-71
2021/09/29 07:23:55;;;;;;;132.07;42.97;;;;;;;13.20;87.48;101972.53;5029933;28;21076;-71
2021/09/29 07:26:25;;;;;;;132.13;42.60;;;;;;;13.20;87.24;101980.63;5015649;28;20444;-71
2021/09/29 07:28:53;;;;;;;134.97;43.57;;;;;;;13.20;87.46;101993.25;5045286;28;20513;-71
2021/09/29 07:31:21;;;;;;;134.33;44.70;;;;;;;13.04;87.73;101956.34;5029244;28;20506;-72
2021/09/29 07:33:49;;;;;;;139.80;44.80;;;;;;;13.13;87.21;101971.09;5029645;28;20514;-71
2021/09/29 07:36:17;;;;;;;135.63;42.90;;;;;;;13.21;87.15;101986.88;5029156;28;20447;-70
2021/09/29 07:38:45;;;;;;;135.03;43.17;;;;;;;13.19;87.32;101986.97;5028563;28;20467;-70
2021/09/29 07:41:15;;;;;;;129.03;34.97;;;;;;;13.19;87.81;101976.19;5029421;28;20931;-71
2021/09/29 07:43:43;;;;;;;128.30;34.27;;;;;;;13.20;87.61;101982.47;5044925;28;20464;-71
2021/09/29 07:46:11;;;;;;;127.53;37.40;;;;;;;13.24;88.06;101986.69;5029360;28;20452;-72
2021/09/29 07:48:39;;;;;;;132.20;40.33;;;;;;;13.09;87.60;101971.38;5029549;28;21263;-72
2021/09/29 07:51:08;;;;;;;126.70;36.10;;;;;;;13.22;88.06;101991.31;5037556;28;20608;-72
2021/09/29 07:53:36;;;;;;;127.27;35.43;;;;;;;13.28;87.52;101986.44;5031992;28;20255;-71
2021/09/29 07:56:05;;;;;;;129.90;37.67;;;;;;;13.14;87.22;101972.84;5028118;28;20456;-70
2021/09/29 07:58:35;;;;;;;126.07;33.97;;;;;;;13.30;87.33;101995.31;5028856;28;20834;-71
2021/09/29 08:01:03;;;;;;;128.63;37.50;;;;;;;13.28;86.79;101989.13;5029448;28;20514;-70
2021/09/29 08:03:31;;;;;;;129.70;35.77;;;;;;;13.31;86.84;101999.72;5028795;28;20443;-71
2021/09/29 08:06:02;;;;;;;125.80;33.50;;;;;;;13.27;86.34;101995.47;5028068;28;20458;-71
2021/09/29 08:08:30;;;;;;;125.73;34.23;;;;;;;13.30;86.10;102003.41;5043223;28;20475;-71
2021/09/29 08:10:59;;;;;;;125.30;34.80;;;;;;;13.27;86.53;101991.91;5028815;28;20455;-71
2021/09/29 08:13:28;;;;;;;130.37;43.00;;;;;;;13.33;85.88;101999.63;5028591;28;20491;-72
2021/09/29 08:15:58;;;;;;;132.47;42.27;;;;;;;13.32;85.75;102003.31;5029221;28;20448;-71
2021/09/29 08:18:27;;;;;;;128.03;42.17;;;;;;;13.34;85.26;101995.97;5028463;28;20456;-71
2021/09/29 08:20:57;;;;;;;129.03;43.20;;;;;;;13.33;85.13;101992.41;5028659;28;20502;-71
2021/09/29 08:23:28;;;;;;;135.47;44.10;;;;;;;13.36;84.99;101994.94;5028536;28;20444;-71
2021/09/29 08:28:47;;;;;;;131.07;43.83;;;;;;;13.32;84.50;101993.38;5028067;28;20814;-71
2021/09/29 08:31:24;;;;;;;131.70;41.83;;;;;;;13.40;84.81;101989.34;5028583;28;20451;-71
2021/09/29 08:36:49;;;;;;;125.97;40.03;;;;;;;13.38;84.61;101991.28;5010185;28;20954;-72
2021/09/29 08:39:25;;;;;;;137.67;44.83;;;;;;;13.42;84.87;101990.13;5027285;28;20964;-71
2021/09/29 08:42:11;;;;;;;140.40;46.10;;;;;;;13.41;84.89;101991.09;5028546;28;21061;-71
2021/09/29 08:44:47;;;;;;;136.10;37.83;;;;;;;13.40;85.45;101986.66;5028109;28;20524;-71
2021/09/29 08:47:24;;;;;;;141.00;45.53;;;;;;;13.44;85.34;101999.88;5028380;28;20466;-71
2021/09/29 08:50:06;;;;;;;139.67;44.20;;;;;;;13.42;84.54;101984.72;5028194;28;20791;-71
2021/09/29 08:52:50;;;;;;;140.73;46.07;;;;;;;13.46;85.31;101980.88;5028304;28;20443;-71
2021/09/29 09:14:59;;;;;;;124.97;40.80;;;;;;;13.43;86.82;101994.56;5016955;28;20937;-72
2021/09/29 09:17:30;;;;;;;132.23;43.63;;;;;;;13.30;87.81;101989.03;5027734;28;20455;-71
2021/09/29 09:20:15;;;;;;;128.87;43.67;;;;;;;12.91;87.84;101930.19;5043447;28;20591;-71
2021/09/29 09:22:44;;;;;;;180.23;56.77;;;;;;;13.27;88.46;102000.00;5027416;28;20464;-71
2021/09/29 09:25:13;;;;;;;179.83;51.87;;;;;;;13.25;88.39;101996.53;5028016;28;20459;-71
2021/09/29 09:27:43;;;;;;;187.00;61.60;;;;;;;13.22;88.22;102000.28;5026227;28;20612;-71
2021/09/29 09:30:12;;;;;;;188.47;62.73;;;;;;;13.26;88.73;102004.53;5028026;28;20470;-72
2021/09/29 09:32:44;;;;;;;187.93;64.63;;;;;;;13.24;87.93;101987.56;5027439;28;20470;-71
2021/09/29 09:35:14;;;;;;;187.20;64.33;;;;;;;13.26;87.85;102001.84;5027917;28;20996;-71
2021/09/29 09:37:44;;;;;;;184.53;59.87;;;;;;;13.26;88.15;101991.03;5026231;28;20974;-72
2021/09/29 09:40:15;;;;;;;181.80;54.40;;;;;;;13.30;87.42;102005.22;5026631;28;20518;-71
2021/09/29 09:42:46;;;;;;;181.40;56.60;;;;;;;13.26;86.54;101995.56;5027526;28;20524;-72
2021/09/29 09:45:18;;;;;;;184.83;59.83;;;;;;;13.31;86.20;101997.03;5042901;28;20466;-71
2021/09/29 09:47:47;;;;;;;185.77;61.00;;;;;;;13.33;86.24;101992.41;5027499;28;20454;-71
2021/09/29 09:50:27;;;;;;;176.20;50.53;;;;;;;13.34;85.62;102004.06;5024418;28;20460;-71
2021/09/29 09:52:55;;;;;;;180.33;60.20;;;;;;;13.37;84.73;102001.19;5037164;28;20810;-71
2021/09/29 09:55:25;;;;;;;177.30;56.87;;;;;;;13.35;84.87;101998.59;5042424;28;20655;-71
2021/09/29 09:57:55;;;;;;;175.13;51.37;;;;;;;13.34;84.98;102007.66;5027682;28;20458;-71
2021/09/29 10:00:26;;;;;;;179.03;54.67;;;;;;;13.33;85.09;101994.25;5027066;28;20513;-70
2021/09/29 10:02:55;;;;;;;181.50;59.93;;;;;;;13.19;84.64;101969.94;5026777;28;21028;-71
2021/09/29 10:05:26;;;;;;;185.90;64.87;;;;;;;13.29;84.28;102001.66;5027185;28;20447;-71
2021/09/29 10:07:54;;;;;;;183.20;59.37;;;;;;;13.27;84.45;101995.47;5027581;28;20452;-71
2021/09/29 10:10:28;;;;;;;178.53;53.10;;;;;;;13.34;84.25;101995.97;5027120;28;20447;-70
2021/09/29 10:27:11;;;;;;;170.90;52.30;;;;;;;13.51;83.92;101989.59;5000118;28;20489;-70
2021/09/29 10:29:42;;;;;;;177.47;57.57;;;;;;;13.46;83.83;101979.06;5030147;28;20531;-70
2021/09/29 10:32:21;;;;;;;163.47;40.80;;;;;;;13.48;83.18;101995.19;5031315;28;20451;-70
2021/09/29 10:35:06;;;;;;;159.77;41.07;;;;;;;13.46;83.23;101979.06;5029583;28;20486;-71
2021/09/29 10:38:00;;;;;;;155.00;39.20;;;;;;;13.55;83.53;101993.84;5030665;28;20448;-70
2021/09/29 10:40:54;;;;;;;160.13;40.90;;;;;;;13.52;82.61;101984.09;5020525;28;20525;-71
2021/09/29 10:43:29;;;;;;;160.03;41.43;;;;;;;13.61;83.12;101988.94;5030172;28;20444;-71
2021/09/29 10:46:04;;;;;;;161.57;42.60;;;;;;;13.55;83.06;101970.41;5030664;28;20455;-72
2021/09/29 10:48:52;;;;;;;165.93;46.77;;;;;;;13.65;82.60;101984.22;5030134;28;20988;-72
2021/09/29 11:30:53;;;;;;;167.40;54.20;;;;;;;13.28;85.76;101964.84;4995526;28;20522;-71
2021/09/29 11:33:28;;;;;;;171.73;57.10;;;;;;;13.28;85.39;101964.84;5029755;28;20946;-72
2021/09/29 11:36:04;;;;;;;170.57;56.40;;;;;;;13.27;85.25;101965.81;5029594;28;20881;-70
2021/09/29 11:38:56;;;;;;;170.20;53.83;;;;;;;13.24;84.72;101957.91;5029233;28;20456;-70
2021/09/29 12:09:31;;;;;;;170.30;56.93;;;;;;;13.41;83.19;101973.06;5028585;28;20543;-72
2021/09/29 12:12:15;;;;;;;169.87;56.37;;;;;;;13.31;83.76;101980.84;5029339;28;20462;-71
2021/09/29 12:14:46;;;;;;;169.03;50.00;;;;;;;13.31;83.96;101966.50;5028527;28;20491;-71
2021/09/29 12:17:22;;;;;;;168.80;43.97;;;;;;;13.31;83.83;101970.06;5028884;28;20452;-71
2021/09/29 12:19:54;;;;;;;175.87;54.40;;;;;;;13.14;83.14;101971.97;5029206;28;20451;-72
2021/09/29 12:22:24;;;;;;;172.30;49.73;;;;;;;12.97;82.19;101972.97;5028712;28;20483;-71
2021/09/29 12:24:59;;;;;;;171.03;53.23;;;;;;;12.93;83.30;101960.63;5027943;28;20459;-73
2021/09/29 12:27:33;;;;;;;175.30;57.47;;;;;;;12.90;83.56;101960.81;5043632;28;20471;-72
2021/09/29 12:30:28;;;;;;;172.43;55.93;;;;;;;12.96;83.21;101957.75;5026558;28;20460;-71
2021/09/29 12:33:09;;;;;;;169.13;51.63;;;;;;;12.77;84.21;101933.66;5024782;28;20545;-71
2021/09/29 12:35:49;;;;;;;169.40;51.40;;;;;;;12.90;85.05;101958.09;5028222;28;20483;-71
2021/09/29 12:38:18;;;;;;;172.67;54.97;;;;;;;12.88;85.47;101955.50;5028183;28;20447;-71
2021/09/29 12:40:49;;;;;;;168.63;52.30;;;;;;;12.85;85.50;101949.38;5028622;28;20513;-71
2021/09/29 12:43:19;;;;;;;170.10;54.50;;;;;;;12.87;86.20;101951.06;5028456;28;20443;-73
2021/09/29 12:45:49;;;;;;;168.93;51.27;;;;;;;12.97;85.80;101948.69;5028654;28;20444;-73
2021/09/29 12:48:22;;;;;;;165.20;43.97;;;;;;;13.05;86.65;101949.09;5043708;28;20492;-72
2021/09/29 12:50:54;;;;;;;166.00;44.80;;;;;;;13.04;86.82;101945.53;5035527;28;20446;-72
2021/09/29 12:53:30;;;;;;;163.27;40.20;;;;;;;13.11;86.25;101945.19;5033006;28;20578;-73
2021/09/29 12:56:01;;;;;;;167.33;46.03;;;;;;;13.13;86.36;101938.72;5028442;28;20513;-71
2021/09/29 12:58:29;;;;;;;172.73;53.43;;;;;;;13.07;85.58;101945.34;5027950;28;20455;-72
2021/09/29 13:00:59;;;;;;;163.33;42.20;;;;;;;13.14;85.82;101937.75;5027501;28;20470;-72
2021/09/29 13:03:29;;;;;;;169.50;49.13;;;;;;;13.20;84.77;101944.69;5026458;28;20455;-71